createdAt,value
2018-01-08T00:00:41.642Z,0
2018-01-08T00:02:03.803Z,0
2018-01-08T00:03:26.008Z,0
2018-01-08T00:04:47.922Z,0
2018-01-08T00:06:09.283Z,0
2018-01-08T00:07:31.149Z,0
2018-01-08T00:08:53.016Z,0
2018-01-08T00:10:14.863Z,0
2018-01-08T00:11:36.765Z,0
2018-01-08T00:12:58.900Z,0
2018-01-08T00:14:20.780Z,0
2018-01-08T00:15:42.769Z,0
2018-01-08T00:17:04.610Z,0
2018-01-08T00:18:26.495Z,0
2018-01-08T00:19:48.895Z,0
2018-01-08T00:21:10.767Z,0
2018-01-08T00:22:32.722Z,0
2018-01-08T00:23:54.586Z,0
2018-01-08T00:25:16.493Z,0
2018-01-08T00:26:38.353Z,0
2018-01-08T00:28:00.325Z,0
2018-01-08T00:29:21.986Z,0
2018-01-08T00:30:43.874Z,0
2018-01-08T00:32:05.793Z,0
2018-01-08T00:33:27.157Z,0
2018-01-08T00:34:49.343Z,0
2018-01-08T00:36:11.061Z,0
2018-01-08T00:37:33.172Z,0
2018-01-08T00:38:54.763Z,0
2018-01-08T00:40:16.639Z,0
2018-01-08T00:41:38.287Z,0
2018-01-08T00:42:59.984Z,0
2018-01-08T00:44:21.573Z,0
2018-01-08T00:45:43.168Z,0
2018-01-08T00:47:04.785Z,0
2018-01-08T00:48:26.656Z,0
2018-01-08T00:49:48.918Z,0
2018-01-08T00:51:11.018Z,0
2018-01-08T00:52:32.608Z,0
2018-01-08T00:53:54.608Z,0
2018-01-08T00:55:16.431Z,0
2018-01-08T00:56:38.276Z,0
2018-01-08T00:57:59.875Z,0
2018-01-08T00:59:21.973Z,0
2018-01-08T01:00:44.123Z,0
2018-01-08T01:02:05.494Z,0
2018-01-08T01:03:27.185Z,0
2018-01-08T01:04:49.475Z,0
2018-01-08T01:06:11.323Z,0
2018-01-08T01:07:33.305Z,0
2018-01-08T01:08:55.426Z,0
2018-01-08T01:10:17.094Z,0
2018-01-08T01:11:38.805Z,0
2018-01-08T01:13:00.913Z,0
2018-01-08T01:14:23.060Z,0
2018-01-08T01:15:44.724Z,0
2018-01-08T01:17:06.056Z,0
2018-01-08T01:18:27.637Z,0
2018-01-08T01:19:49.500Z,0
2018-01-08T01:21:11.368Z,0
2018-01-08T01:22:33.219Z,0
2018-01-08T01:23:55.068Z,0
2018-01-08T01:25:16.985Z,0
2018-01-08T01:26:38.909Z,0
2018-01-08T01:28:00.266Z,0
2018-01-08T01:29:21.851Z,0
2018-01-08T01:30:43.270Z,0
2018-01-08T01:32:05.138Z,0
2018-01-08T01:33:27.246Z,0
2018-01-08T01:34:49.098Z,0
2018-01-08T01:36:10.921Z,0
2018-01-08T01:37:33.050Z,0
2018-01-08T01:38:54.380Z,0
2018-01-08T01:40:16.359Z,0
2018-01-08T01:41:37.950Z,0
2018-01-08T01:42:59.881Z,0
2018-01-08T01:44:21.801Z,0
2018-01-08T01:45:43.210Z,0
2018-01-08T01:47:05.327Z,0
2018-01-08T01:48:27.237Z,0
2018-01-08T01:49:49.334Z,0
2018-01-08T01:51:11.532Z,0
2018-01-08T01:52:33.470Z,0
2018-01-08T01:53:54.870Z,0
2018-01-08T01:55:17.046Z,0
2018-01-08T01:56:38.646Z,0
2018-01-08T01:58:00.013Z,0
2018-01-08T01:59:22.253Z,0
2018-01-08T02:00:44.214Z,0
2018-01-08T02:02:06.341Z,0
2018-01-08T02:03:28.254Z,0
2018-01-08T02:04:50.123Z,0
2018-01-08T02:06:11.724Z,0
2018-01-08T02:07:33.312Z,0
2018-01-08T02:08:55.150Z,0
2018-01-08T02:10:17.410Z,0
2018-01-08T02:11:39.575Z,0
2018-01-08T02:13:01.428Z,0
2018-01-08T02:14:23.272Z,0
2018-01-08T02:15:45.404Z,0
2018-01-08T02:17:06.745Z,0
2018-01-08T02:18:28.634Z,0
2018-01-08T02:19:50.522Z,0
2018-01-08T02:21:12.388Z,0
2018-01-08T02:22:34.499Z,0
2018-01-08T02:23:56.628Z,0
2018-01-08T02:25:18.869Z,0
2018-01-08T02:26:40.992Z,0
2018-01-08T02:28:02.967Z,0
2018-01-08T02:29:24.549Z,0
2018-01-08T02:30:46.678Z,0
2018-01-08T02:32:08.022Z,0
2018-01-08T02:33:29.870Z,0
2018-01-08T02:34:51.771Z,0
2018-01-08T02:36:14.001Z,0
2018-01-08T02:37:36.162Z,0
2018-01-08T02:38:58.132Z,0
2018-01-08T02:40:20.012Z,0
2018-01-08T02:41:41.971Z,0
2018-01-08T02:43:03.927Z,0
2018-01-08T02:44:26.040Z,0
2018-01-08T02:45:47.916Z,0
2018-01-08T02:47:09.767Z,0
2018-01-08T02:48:31.686Z,0
2018-01-08T02:49:53.812Z,0
2018-01-08T02:51:15.945Z,0
2018-01-08T02:52:37.904Z,0
2018-01-08T02:53:59.297Z,0
2018-01-08T02:55:20.626Z,0
2018-01-08T02:56:42.284Z,0
2018-01-08T02:58:04.165Z,0
2018-01-08T02:59:26.350Z,0
2018-01-08T03:00:47.959Z,0
2018-01-08T03:02:09.838Z,0
2018-01-08T03:03:31.422Z,0
2018-01-08T03:04:53.508Z,0
2018-01-08T03:06:14.842Z,0
2018-01-08T03:07:36.993Z,0
2018-01-08T03:08:58.373Z,0
2018-01-08T03:10:20.440Z,0
2018-01-08T03:11:42.363Z,0
2018-01-08T03:13:03.968Z,0
2018-01-08T03:14:25.816Z,0
2018-01-08T03:15:47.170Z,0
2018-01-08T03:17:09.041Z,0
2018-01-08T03:18:30.799Z,0
2018-01-08T03:19:52.721Z,0
2018-01-08T03:21:14.648Z,0
2018-01-08T03:22:36.643Z,0
2018-01-08T03:23:58.605Z,0
2018-01-08T03:25:20.478Z,0
2018-01-08T03:26:42.325Z,0
2018-01-08T03:28:04.175Z,0
2018-01-08T03:29:26.028Z,0
2018-01-08T03:30:47.505Z,0
2018-01-08T03:32:09.110Z,0
2018-01-08T03:33:31.018Z,0
2018-01-08T03:34:52.875Z,0
2018-01-08T03:36:15.074Z,0
2018-01-08T03:37:36.778Z,0
2018-01-08T03:38:58.617Z,0
2018-01-08T03:40:20.733Z,0
2018-01-08T03:41:42.330Z,0
2018-01-08T03:43:04.250Z,0
2018-01-08T03:44:25.949Z,0
2018-01-08T03:45:47.605Z,0
2018-01-08T03:47:09.224Z,0
2018-01-08T03:48:30.884Z,0
2018-01-08T03:49:53.029Z,0
2018-01-08T03:51:15.230Z,0
2018-01-08T03:52:37.124Z,0
2018-01-08T03:53:58.977Z,0
2018-01-08T03:55:20.824Z,0
2018-01-08T03:56:43.077Z,0
2018-01-08T03:58:04.715Z,0
2018-01-08T03:59:26.401Z,0
2018-01-08T04:00:48.173Z,0
2018-01-08T04:02:09.928Z,0
2018-01-08T04:03:31.610Z,0
2018-01-08T04:04:53.720Z,0
2018-01-08T04:06:14.814Z,0
2018-01-08T04:07:36.836Z,0
2018-01-08T04:08:58.556Z,0
2018-01-08T04:10:20.479Z,0
2018-01-08T04:11:42.156Z,0
2018-01-08T04:13:03.774Z,0
2018-01-08T04:14:25.639Z,0
2018-01-08T04:15:46.964Z,0
2018-01-08T04:17:08.802Z,0
2018-01-08T04:18:30.382Z,0
2018-01-08T04:19:52.258Z,0
2018-01-08T04:21:14.425Z,0
2018-01-08T04:22:36.323Z,0
2018-01-08T04:23:58.455Z,0
2018-01-08T04:25:20.331Z,0
2018-01-08T04:26:41.694Z,0
2018-01-08T04:28:03.541Z,0
2018-01-08T04:29:25.388Z,0
2018-01-08T04:30:47.247Z,0
2018-01-08T04:32:09.308Z,0
2018-01-08T04:33:31.170Z,0
2018-01-08T04:34:52.818Z,0
2018-01-08T04:36:14.755Z,0
2018-01-08T04:37:36.341Z,0
2018-01-08T04:38:58.506Z,0
2018-01-08T04:40:20.380Z,0
2018-01-08T04:41:41.795Z,0
2018-01-08T04:43:03.661Z,0
2018-01-08T04:44:25.483Z,0
2018-01-08T04:45:47.333Z,0
2018-01-08T04:47:08.933Z,0
2018-01-08T04:48:30.810Z,0
2018-01-08T04:49:52.686Z,0
2018-01-08T04:51:14.584Z,0
2018-01-08T04:52:35.924Z,0
2018-01-08T04:53:57.255Z,0
2018-01-08T04:55:19.092Z,0
2018-01-08T04:56:40.934Z,0
2018-01-08T04:58:02.287Z,0
2018-01-08T04:59:24.608Z,0
2018-01-08T05:00:46.047Z,0
2018-01-08T05:02:08.117Z,0
2018-01-08T05:03:29.458Z,0
2018-01-08T05:04:51.314Z,0
2018-01-08T05:06:12.907Z,0
2018-01-08T05:07:34.501Z,0
2018-01-08T05:08:56.078Z,0
2018-01-08T05:10:17.672Z,0
2018-01-08T05:11:39.780Z,0
2018-01-08T05:13:01.896Z,0
2018-01-08T05:14:23.765Z,0
2018-01-08T05:15:45.616Z,0
2018-01-08T05:17:07.571Z,0
2018-01-08T05:18:28.640Z,0
2018-01-08T05:19:50.246Z,0
2018-01-08T05:21:12.226Z,0
2018-01-08T05:22:34.106Z,0
2018-01-08T05:23:55.765Z,0
2018-01-08T05:25:17.099Z,0
2018-01-08T05:26:38.960Z,0
2018-01-08T05:28:00.875Z,0
2018-01-08T05:29:23.044Z,0
2018-01-08T05:30:44.657Z,0
2018-01-08T05:32:06.331Z,0
2018-01-08T05:33:27.908Z,0
2018-01-08T05:34:50.026Z,0
2018-01-08T05:36:12.186Z,0
2018-01-08T05:37:34.136Z,0
2018-01-08T05:38:56.265Z,0
2018-01-08T05:40:18.072Z,0
2018-01-08T05:41:40.175Z,0
2018-01-08T05:43:02.035Z,0
2018-01-08T05:44:23.985Z,0
2018-01-08T05:45:45.581Z,0
2018-01-08T05:47:07.478Z,0
2018-01-08T05:48:29.841Z,0
2018-01-08T05:49:51.174Z,0
2018-01-08T05:51:13.006Z,0
2018-01-08T05:52:34.948Z,0
2018-01-08T05:53:56.803Z,0
2018-01-08T05:55:18.646Z,0
2018-01-08T05:56:40.252Z,0
2018-01-08T05:58:02.426Z,0
2018-01-08T05:59:24.036Z,0
2018-01-08T06:00:45.922Z,0
2018-01-08T06:02:07.784Z,0
2018-01-08T06:03:29.681Z,0
2018-01-08T06:04:51.599Z,0
2018-01-08T06:06:13.475Z,0
2018-01-08T06:07:35.401Z,0
2018-01-08T06:08:57.052Z,0
2018-01-08T06:10:19.299Z,0
2018-01-08T06:11:41.408Z,0
2018-01-08T06:13:03.354Z,0
2018-01-08T06:14:24.694Z,0
2018-01-08T06:15:46.534Z,0
2018-01-08T06:17:08.011Z,0
2018-01-08T06:18:29.905Z,0
2018-01-08T06:19:51.757Z,0
2018-01-08T06:21:13.467Z,0
2018-01-08T06:22:34.793Z,0
2018-01-08T06:23:56.625Z,0
2018-01-08T06:25:18.484Z,0
2018-01-08T06:26:40.655Z,0
2018-01-08T06:28:02.253Z,0
2018-01-08T06:29:23.967Z,0
2018-01-08T06:30:46.077Z,0
2018-01-08T06:32:07.276Z,0
2018-01-08T06:33:28.935Z,0
2018-01-08T06:34:50.532Z,0
2018-01-08T06:36:12.381Z,0
2018-01-08T06:37:34.485Z,0
2018-01-08T06:38:56.354Z,0
2018-01-08T06:40:18.371Z,0
2018-01-08T06:41:39.704Z,0
2018-01-08T06:43:01.642Z,0
2018-01-08T06:44:23.501Z,0
2018-01-08T06:45:45.695Z,0
2018-01-08T06:47:07.674Z,0
2018-01-08T06:48:29.543Z,0
2018-01-08T06:49:51.667Z,0
2018-01-08T06:51:13.773Z,0
2018-01-08T06:52:35.637Z,0
2018-01-08T06:53:57.517Z,0
2018-01-08T06:55:19.372Z,0
2018-01-08T06:56:41.220Z,0
2018-01-08T06:58:02.806Z,0
2018-01-08T06:59:24.447Z,0
2018-01-08T07:00:46.278Z,0
2018-01-08T07:02:08.166Z,0
2018-01-08T07:03:30.149Z,0
2018-01-08T07:04:52.053Z,0
2018-01-08T07:06:13.709Z,0
2018-01-08T07:07:35.577Z,0
2018-01-08T07:08:57.461Z,0
2018-01-08T07:10:19.317Z,0
2018-01-08T07:11:41.220Z,0
2018-01-08T07:13:03.344Z,0
2018-01-08T07:14:24.938Z,0
2018-01-08T07:15:46.330Z,0
2018-01-08T07:17:08.185Z,0
2018-01-08T07:18:29.563Z,0
2018-01-08T07:19:51.917Z,0
2018-01-08T07:21:13.253Z,0
2018-01-08T07:22:35.114Z,0
2018-01-08T07:23:56.952Z,0
2018-01-08T07:25:18.577Z,0
2018-01-08T07:26:40.171Z,0
2018-01-08T07:28:01.586Z,0
2018-01-08T07:29:23.165Z,0
2018-01-08T07:30:45.023Z,5
2018-01-08T07:32:06.594Z,5
2018-01-08T07:33:28.232Z,5
2018-01-08T07:34:50.085Z,5
2018-01-08T07:36:12.062Z,5
2018-01-08T07:37:33.999Z,5
2018-01-08T07:38:55.922Z,5
2018-01-08T07:40:17.897Z,10
2018-01-08T07:41:39.815Z,10
2018-01-08T07:43:01.905Z,10
2018-01-08T07:44:24.022Z,10
2018-01-08T07:45:45.966Z,15
2018-01-08T07:47:08.074Z,15
2018-01-08T07:48:32.421Z,15
2018-01-08T07:49:54.054Z,15
2018-01-08T07:51:15.968Z,15
2018-01-08T07:52:37.299Z,20
2018-01-08T07:53:58.659Z,20
2018-01-08T07:55:20.805Z,20
2018-01-08T07:56:42.669Z,25
2018-01-08T07:58:04.525Z,25
2018-01-08T07:59:26.380Z,25
2018-01-08T08:00:47.971Z,25
2018-01-08T08:02:09.712Z,30
2018-01-08T08:03:31.349Z,30
2018-01-08T08:04:53.302Z,30
2018-01-08T08:06:15.254Z,30
2018-01-08T08:07:36.873Z,35
2018-01-08T08:08:59.080Z,35
2018-01-08T08:10:21.027Z,35
2018-01-08T08:11:42.526Z,35
2018-01-08T08:13:04.275Z,40
2018-01-08T08:14:26.222Z,40
2018-01-08T08:15:48.249Z,40
2018-01-08T08:17:10.114Z,40
2018-01-08T08:18:32.088Z,40
2018-01-08T08:19:54.480Z,45
2018-01-08T08:21:16.351Z,45
2018-01-08T08:22:38.457Z,45
2018-01-08T08:24:00.385Z,45
2018-01-08T08:25:24.166Z,50
2018-01-08T08:26:46.284Z,50
2018-01-08T08:28:08.259Z,50
2018-01-08T08:29:30.421Z,50
2018-01-08T08:30:52.542Z,55
2018-01-08T08:32:14.142Z,55
2018-01-08T08:33:35.740Z,55
2018-01-08T08:34:57.374Z,55
2018-01-08T08:36:19.526Z,55
2018-01-08T08:37:40.886Z,60
2018-01-08T08:39:03.092Z,60
2018-01-08T08:40:25.188Z,60
2018-01-08T08:41:46.784Z,60
2018-01-08T08:43:08.663Z,60
2018-01-08T08:44:30.906Z,65
2018-01-08T08:45:53.032Z,65
2018-01-08T08:47:14.972Z,65
2018-01-08T08:48:37.082Z,65
2018-01-08T08:49:58.686Z,65
2018-01-08T08:51:20.559Z,70
2018-01-08T08:52:42.424Z,70
2018-01-08T08:54:04.207Z,70
2018-01-08T08:55:25.804Z,70
2018-01-08T08:56:47.936Z,70
2018-01-08T08:58:09.538Z,70
2018-01-08T08:59:31.411Z,75
2018-01-08T09:00:53.258Z,75
2018-01-08T09:02:15.437Z,75
2018-01-08T09:03:37.639Z,75
2018-01-08T09:04:59.583Z,75
2018-01-08T09:06:21.192Z,75
2018-01-08T09:07:42.854Z,75
2018-01-08T09:09:04.495Z,80
2018-01-08T09:10:26.092Z,80
2018-01-08T09:11:48.289Z,80
2018-01-08T09:13:09.971Z,80
2018-01-08T09:14:32.093Z,80
2018-01-08T09:15:53.714Z,80
2018-01-08T09:17:15.878Z,80
2018-01-08T09:18:37.185Z,80
2018-01-08T09:19:58.779Z,85
2018-01-08T09:21:20.374Z,85
2018-01-08T09:22:42.542Z,85
2018-01-08T09:24:04.736Z,85
2018-01-08T09:25:26.328Z,85
2018-01-08T09:26:48.455Z,85
2018-01-08T09:28:10.302Z,85
2018-01-08T09:29:32.142Z,85
2018-01-08T09:30:53.993Z,85
2018-01-08T09:32:15.601Z,85
2018-01-08T09:33:37.859Z,90
2018-01-08T09:34:59.580Z,90
2018-01-08T09:36:21.578Z,90
2018-01-08T09:37:43.694Z,90
2018-01-08T09:39:05.594Z,90
2018-01-08T09:40:27.723Z,90
2018-01-08T09:41:49.375Z,90
2018-01-08T09:43:10.956Z,90
2018-01-08T09:44:32.798Z,90
2018-01-08T09:45:54.776Z,90
2018-01-08T09:47:16.944Z,90
2018-01-08T09:48:38.254Z,95
2018-01-08T09:50:00.254Z,95
2018-01-08T09:51:22.370Z,95
2018-01-08T09:52:44.589Z,95
2018-01-08T09:54:06.184Z,95
2018-01-08T09:55:27.890Z,95
2018-01-08T09:56:49.489Z,95
2018-01-08T09:58:11.341Z,95
2018-01-08T09:59:32.924Z,95
2018-01-08T10:00:55.327Z,95
2018-01-08T10:02:17.589Z,95
2018-01-08T10:03:39.220Z,95
2018-01-08T10:05:00.815Z,95
2018-01-08T10:06:22.803Z,100
2018-01-08T10:07:44.673Z,100
2018-01-08T10:09:06.585Z,100
2018-01-08T10:10:28.592Z,100
2018-01-08T10:11:50.516Z,100
2018-01-08T10:13:12.382Z,100
2018-01-08T10:14:34.584Z,100
2018-01-08T10:15:56.487Z,100
2018-01-08T10:17:17.583Z,100
2018-01-08T10:18:39.714Z,100
2018-01-08T10:20:01.837Z,100
2018-01-08T10:21:24.184Z,100
2018-01-08T10:22:46.034Z,100
2018-01-08T10:24:07.644Z,100
2018-01-08T10:25:29.241Z,100
2018-01-08T10:26:50.859Z,100
2018-01-08T10:28:12.507Z,100
2018-01-08T10:29:34.409Z,100
2018-01-08T10:30:56.297Z,100
2018-01-08T10:32:18.397Z,100
2018-01-08T10:33:40.362Z,100
2018-01-08T10:35:02.476Z,100
2018-01-08T10:36:24.414Z,100
2018-01-08T10:37:46.579Z,100
2018-01-08T10:39:08.541Z,100
2018-01-08T10:40:30.683Z,100
2018-01-08T10:41:52.563Z,100
2018-01-08T10:43:14.437Z,100
2018-01-08T10:44:36.426Z,100
2018-01-08T10:45:58.304Z,100
2018-01-08T10:47:20.496Z,100
2018-01-08T10:48:41.836Z,100
2018-01-08T10:50:03.432Z,100
2018-01-08T10:51:24.869Z,100
2018-01-08T10:52:46.464Z,100
2018-01-08T10:54:08.593Z,100
2018-01-08T10:55:30.466Z,100
2018-01-08T10:56:52.359Z,100
2018-01-08T10:58:14.037Z,100
2018-01-08T10:59:36.202Z,100
2018-01-08T11:00:57.630Z,100
2018-01-08T11:02:19.505Z,100
2018-01-08T11:03:41.430Z,100
2018-01-08T11:05:03.389Z,100
2018-01-08T11:06:24.990Z,100
2018-01-08T11:07:46.592Z,100
2018-01-08T11:09:08.502Z,100
2018-01-08T11:10:30.718Z,100
2018-01-08T11:11:52.760Z,100
2018-01-08T11:13:14.943Z,100
2018-01-08T11:14:36.792Z,100
2018-01-08T11:15:58.652Z,100
2018-01-08T11:17:20.582Z,100
2018-01-08T11:18:42.755Z,100
2018-01-08T11:20:05.031Z,100
2018-01-08T11:21:26.624Z,100
2018-01-08T11:22:48.490Z,100
2018-01-08T11:24:10.373Z,100
2018-01-08T11:25:32.463Z,100
2018-01-08T11:26:54.363Z,100
2018-01-08T11:28:16.493Z,100
2018-01-08T11:29:38.409Z,100
2018-01-08T11:31:00.062Z,100
2018-01-08T11:32:22.269Z,100
2018-01-08T11:33:44.132Z,100
2018-01-08T11:35:05.573Z,100
2018-01-08T11:36:27.756Z,100
2018-01-08T11:37:49.895Z,100
2018-01-08T11:39:11.486Z,100
2018-01-08T11:40:33.002Z,100
2018-01-08T11:41:54.353Z,100
2018-01-08T11:43:16.473Z,100
2018-01-08T11:44:38.562Z,100
2018-01-08T11:46:00.504Z,100
2018-01-08T11:47:21.859Z,100
2018-01-08T11:48:43.854Z,100
2018-01-08T11:50:05.710Z,100
2018-01-08T11:51:27.409Z,100
2018-01-08T11:52:49.346Z,100
2018-01-08T11:54:11.223Z,100
2018-01-08T11:55:32.915Z,100
2018-01-08T11:56:54.510Z,100
2018-01-08T11:58:16.222Z,100
2018-01-08T11:59:38.464Z,100
2018-01-08T12:01:00.679Z,100
2018-01-08T12:02:22.662Z,100
2018-01-08T12:03:44.500Z,100
2018-01-08T12:05:06.417Z,100
2018-01-08T12:06:28.356Z,100
2018-01-08T12:07:50.217Z,100
2018-01-08T12:09:12.120Z,100
2018-01-08T12:10:34.052Z,100
2018-01-08T12:11:55.902Z,100
2018-01-08T12:13:18.086Z,100
2018-01-08T12:14:39.976Z,100
2018-01-08T12:16:01.829Z,100
2018-01-08T12:17:22.896Z,100
2018-01-08T12:18:44.786Z,100
2018-01-08T12:20:06.650Z,100
2018-01-08T12:21:28.504Z,100
2018-01-08T12:22:49.599Z,100
2018-01-08T12:24:11.741Z,100
2018-01-08T12:25:33.623Z,100
2018-01-08T12:26:55.234Z,100
2018-01-08T12:28:17.132Z,100
2018-01-08T12:29:38.990Z,100
2018-01-08T12:31:00.455Z,100
2018-01-08T12:32:22.179Z,100
2018-01-08T12:33:44.473Z,100
2018-01-08T12:35:06.584Z,100
2018-01-08T12:36:28.762Z,100
2018-01-08T12:37:50.930Z,100
2018-01-08T12:39:12.613Z,100
2018-01-08T12:40:34.458Z,100
2018-01-08T12:41:56.572Z,100
2018-01-08T12:43:18.585Z,100
2018-01-08T12:44:40.179Z,100
2018-01-08T12:46:01.779Z,100
2018-01-08T12:47:23.896Z,100
2018-01-08T12:48:45.754Z,100
2018-01-08T12:50:07.624Z,95
2018-01-08T12:51:29.752Z,95
2018-01-08T12:52:51.625Z,95
2018-01-08T12:54:13.230Z,95
2018-01-08T12:55:35.100Z,95
2018-01-08T12:56:57.055Z,95
2018-01-08T12:58:18.929Z,95
2018-01-08T12:59:40.546Z,95
2018-01-08T13:01:02.147Z,95
2018-01-08T13:02:24.026Z,95
2018-01-08T13:03:45.632Z,95
2018-01-08T13:05:07.541Z,95
2018-01-08T13:06:29.426Z,100
2018-01-08T13:07:51.303Z,100
2018-01-08T13:09:13.553Z,95
2018-01-08T13:10:35.673Z,95
2018-01-08T13:11:57.988Z,95
2018-01-08T13:13:20.140Z,95
2018-01-08T13:14:41.935Z,95
2018-01-08T13:16:03.803Z,95
2018-01-08T13:17:25.932Z,95
2018-01-08T13:18:48.136Z,95
2018-01-08T13:20:10.456Z,95
2018-01-08T13:21:32.471Z,95
2018-01-08T13:22:53.905Z,90
2018-01-08T13:24:15.765Z,90
2018-01-08T13:25:38.032Z,90
2018-01-08T13:26:59.637Z,90
2018-01-08T13:28:21.854Z,90
2018-01-08T13:29:43.903Z,90
2018-01-08T13:31:05.552Z,90
2018-01-08T13:32:27.483Z,90
2018-01-08T13:33:49.349Z,90
2018-01-08T13:35:11.237Z,85
2018-01-08T13:36:33.184Z,85
2018-01-08T13:37:54.763Z,85
2018-01-08T13:39:16.883Z,85
2018-01-08T13:40:38.775Z,85
2018-01-08T13:42:00.632Z,85
2018-01-08T13:43:22.502Z,80
2018-01-08T13:44:44.375Z,80
2018-01-08T13:46:06.618Z,80
2018-01-08T13:47:28.340Z,80
2018-01-08T13:48:50.213Z,80
2018-01-08T13:50:12.074Z,80
2018-01-08T13:51:34.193Z,80
2018-01-08T13:52:56.179Z,80
2018-01-08T13:54:18.073Z,80
2018-01-08T13:55:40.299Z,80
2018-01-08T13:57:02.159Z,75
2018-01-08T13:58:24.071Z,75
2018-01-08T13:59:46.260Z,75
2018-01-08T14:01:08.152Z,75
2018-01-08T14:02:30.083Z,75
2018-01-08T14:03:51.980Z,75
2018-01-08T14:05:13.333Z,75
2018-01-08T14:06:35.235Z,70
2018-01-08T14:07:57.117Z,70
2018-01-08T14:09:18.982Z,70
2018-01-08T14:10:40.899Z,70
2018-01-08T14:12:03.076Z,70
2018-01-08T14:13:24.964Z,70
2018-01-08T14:14:46.845Z,65
2018-01-08T14:16:08.433Z,65
2018-01-08T14:17:30.422Z,65
2018-01-08T14:18:52.078Z,65
2018-01-08T14:20:14.322Z,65
2018-01-08T14:21:36.238Z,65
2018-01-08T14:22:58.384Z,60
2018-01-08T14:24:19.992Z,60
2018-01-08T14:25:41.334Z,60
2018-01-08T14:27:02.696Z,60
2018-01-08T14:28:24.905Z,60
2018-01-08T14:29:47.021Z,55
2018-01-08T14:31:08.975Z,55
2018-01-08T14:32:31.163Z,55
2018-01-08T14:33:53.193Z,55
2018-01-08T14:35:15.150Z,50
2018-01-08T14:36:37.302Z,50
2018-01-08T14:37:59.176Z,50
2018-01-08T14:39:20.792Z,50
2018-01-08T14:40:42.962Z,45
2018-01-08T14:42:04.583Z,45
2018-01-08T14:43:26.742Z,45
2018-01-08T14:44:49.134Z,45
2018-01-08T14:46:10.788Z,40
2018-01-08T14:47:32.406Z,40
2018-01-08T14:48:54.572Z,40
2018-01-08T14:50:16.742Z,40
2018-01-08T14:51:38.394Z,35
2018-01-08T14:53:00.277Z,35
2018-01-08T14:54:22.293Z,35
2018-01-08T14:55:44.454Z,35
2018-01-08T14:57:06.053Z,30
2018-01-08T14:58:27.683Z,30
2018-01-08T14:59:49.726Z,30
2018-01-08T15:01:11.712Z,30
2018-01-08T15:02:33.621Z,25
2018-01-08T15:03:55.856Z,25
2018-01-08T15:05:17.741Z,25
2018-01-08T15:06:39.684Z,25
2018-01-08T15:08:01.292Z,20
2018-01-08T15:09:23.162Z,20
2018-01-08T15:10:44.523Z,20
2018-01-08T15:12:06.377Z,20
2018-01-08T15:13:28.562Z,15
2018-01-08T15:14:50.456Z,15
2018-01-08T15:16:12.612Z,15
2018-01-08T15:17:34.508Z,10
2018-01-08T15:18:56.392Z,10
2018-01-08T15:20:18.583Z,10
2018-01-08T15:21:40.760Z,10
2018-01-08T15:23:02.646Z,10
2018-01-08T15:24:24.405Z,10
2018-01-08T15:25:46.555Z,5
2018-01-08T15:27:08.454Z,5
2018-01-08T15:28:30.100Z,5
2018-01-08T15:29:51.996Z,5
2018-01-08T15:31:13.623Z,5
2018-01-08T15:32:35.792Z,5
2018-01-08T15:33:57.486Z,0
2018-01-08T15:35:19.668Z,0
2018-01-08T15:36:41.714Z,0
2018-01-08T15:38:03.860Z,0
2018-01-08T15:39:25.802Z,0
2018-01-08T15:40:47.940Z,0
2018-01-08T15:42:10.134Z,0
2018-01-08T15:43:32.301Z,0
2018-01-08T15:44:53.664Z,0
2018-01-08T15:46:15.972Z,0
2018-01-08T15:47:38.203Z,0
2018-01-08T15:49:00.086Z,0
2018-01-08T15:50:28.586Z,0
2018-01-08T15:51:50.706Z,0
2018-01-08T15:53:13.022Z,0
2018-01-08T15:54:35.258Z,0
2018-01-08T15:55:57.542Z,0
2018-01-08T15:57:19.551Z,0
2018-01-08T15:58:41.429Z,0
2018-01-08T16:00:03.053Z,0
2018-01-08T16:01:24.983Z,0
2018-01-08T16:02:47.137Z,0
2018-01-08T16:04:09.104Z,0
2018-01-08T16:05:31.797Z,0
2018-01-08T16:06:55.084Z,0
2018-01-08T16:08:18.923Z,0
2018-01-08T16:09:43.041Z,0
2018-01-08T16:11:06.782Z,0
2018-01-08T16:12:29.917Z,0
2018-01-08T16:13:52.528Z,0
2018-01-08T16:15:16.175Z,0
2018-01-08T16:16:39.562Z,0
2018-01-08T16:18:02.542Z,0
2018-01-08T16:19:25.818Z,0
2018-01-08T16:20:50.094Z,0
2018-01-08T16:22:12.042Z,0
2018-01-08T16:23:34.291Z,0
2018-01-08T16:24:56.457Z,0
2018-01-08T16:26:18.343Z,0
2018-01-08T16:27:39.953Z,0
2018-01-08T16:29:01.917Z,0
2018-01-08T16:30:23.932Z,0
2018-01-08T16:31:45.860Z,0
2018-01-08T16:33:07.728Z,0
2018-01-08T16:34:29.831Z,0
2018-01-08T16:35:52.185Z,0
2018-01-08T16:37:14.643Z,0
2018-01-08T16:38:36.902Z,0
2018-01-08T16:39:59.110Z,0
2018-01-08T16:41:21.252Z,0
2018-01-08T16:42:43.162Z,0
2018-01-08T16:44:05.347Z,0
2018-01-08T16:45:27.244Z,0
2018-01-08T16:46:49.132Z,0
2018-01-08T16:48:11.059Z,0
2018-01-08T16:49:33.350Z,0
2018-01-08T16:50:55.022Z,0
2018-01-08T16:52:17.146Z,0
2018-01-08T16:53:39.286Z,0
2018-01-08T16:55:01.612Z,0
2018-01-08T16:56:23.782Z,0
2018-01-08T16:57:45.814Z,0
2018-01-08T16:59:07.962Z,0
2018-01-08T17:00:30.181Z,0
2018-01-08T17:01:51.908Z,0
2018-01-08T17:03:14.233Z,0
2018-01-08T17:04:36.371Z,0
2018-01-08T17:05:58.401Z,0
2018-01-08T17:07:20.574Z,0
2018-01-08T17:08:42.222Z,0
2018-01-08T17:10:04.395Z,0
2018-01-08T17:11:26.834Z,0
2018-01-08T17:12:48.456Z,0
2018-01-08T17:14:10.419Z,0
2018-01-08T17:15:32.371Z,0
2018-01-08T17:16:54.485Z,0
2018-01-08T17:18:16.310Z,0
2018-01-08T17:19:37.925Z,0
2018-01-08T17:21:00.387Z,0
2018-01-08T17:22:22.513Z,0
2018-01-08T17:23:44.398Z,0
2018-01-08T17:25:06.473Z,0
2018-01-08T17:26:28.671Z,0
2018-01-08T17:27:50.958Z,0
2018-01-08T17:29:12.857Z,0
2018-01-08T17:30:35.042Z,0
2018-01-08T17:31:56.947Z,0
2018-01-08T17:33:19.095Z,0
2018-01-08T17:34:40.558Z,0
2018-01-08T17:36:02.761Z,0
2018-01-08T17:37:24.996Z,0
2018-01-08T17:38:46.615Z,0
2018-01-08T17:40:08.519Z,0
2018-01-08T17:41:30.454Z,0
2018-01-08T17:42:52.875Z,0
2018-01-08T17:44:14.811Z,0
2018-01-08T17:45:37.101Z,0
2018-01-08T17:46:59.344Z,0
2018-01-08T17:48:21.403Z,0
2018-01-08T17:49:43.338Z,0
2018-01-08T17:51:05.363Z,0
2018-01-08T17:52:27.373Z,0
2018-01-08T17:53:49.603Z,0
2018-01-08T17:55:11.748Z,0
2018-01-08T17:56:33.360Z,0
2018-01-08T17:57:55.250Z,0
2018-01-08T17:59:17.182Z,0
2018-01-08T18:00:39.335Z,0
2018-01-08T18:02:01.349Z,0
2018-01-08T18:03:23.250Z,0
2018-01-08T18:04:45.744Z,0
2018-01-08T18:06:07.672Z,0
2018-01-08T18:07:29.840Z,0
2018-01-08T18:08:51.470Z,0
2018-01-08T18:10:13.653Z,0
2018-01-08T18:11:35.262Z,0
2018-01-08T18:12:57.233Z,0
2018-01-08T18:14:19.168Z,0
2018-01-08T18:15:41.338Z,0
2018-01-08T18:17:03.264Z,0
2018-01-08T18:18:25.161Z,0
2018-01-08T18:19:46.811Z,0
2018-01-08T18:21:08.987Z,0
2018-01-08T18:22:30.879Z,0
2018-01-08T18:23:52.762Z,0
2018-01-08T18:25:15.071Z,0
2018-01-08T18:26:37.015Z,0
2018-01-08T18:27:59.155Z,0
2018-01-08T18:29:20.532Z,0
2018-01-08T18:30:42.645Z,0
2018-01-08T18:32:04.753Z,0
2018-01-08T18:33:26.415Z,0
2018-01-08T18:34:48.553Z,0
2018-01-08T18:36:10.759Z,0
2018-01-08T18:37:32.649Z,0
2018-01-08T18:38:54.852Z,0
2018-01-08T18:40:16.608Z,0
2018-01-08T18:41:38.824Z,0
2018-01-08T18:43:01.075Z,0
2018-01-08T18:44:23.012Z,0
2018-01-08T18:45:44.893Z,0
2018-01-08T18:47:06.949Z,0
2018-01-08T18:48:28.844Z,0
2018-01-08T18:49:50.995Z,0
2018-01-08T18:51:13.139Z,0
2018-01-08T18:52:35.014Z,0
2018-01-08T18:53:57.228Z,0
2018-01-08T18:55:19.149Z,0
2018-01-08T18:56:41.027Z,0
2018-01-08T18:58:02.658Z,0
2018-01-08T18:59:24.572Z,0
2018-01-08T19:00:46.479Z,0
2018-01-08T19:02:08.710Z,0
2018-01-08T19:03:30.648Z,0
2018-01-08T19:04:52.290Z,0
2018-01-08T19:06:14.434Z,0
2018-01-08T19:07:36.704Z,0
2018-01-08T19:08:58.712Z,0
2018-01-08T19:10:20.882Z,0
2018-01-08T19:11:43.172Z,0
2018-01-08T19:13:04.792Z,0
2018-01-08T19:14:26.979Z,0
2018-01-08T19:15:49.161Z,0
2018-01-08T19:17:11.294Z,0
2018-01-08T19:18:33.190Z,0
2018-01-08T19:19:55.464Z,0
2018-01-08T19:21:17.346Z,0
2018-01-08T19:22:39.501Z,0
2018-01-08T19:24:01.470Z,0
2018-01-08T19:25:23.632Z,0
2018-01-08T19:26:45.837Z,0
2018-01-08T19:28:08.032Z,0
2018-01-08T19:29:29.939Z,0
2018-01-08T19:30:51.576Z,0
2018-01-08T19:32:13.898Z,0
2018-01-08T19:33:35.852Z,0
2018-01-08T19:34:58.031Z,0
2018-01-08T19:36:20.118Z,0
2018-01-08T19:37:42.271Z,0
2018-01-08T19:39:04.004Z,0
2018-01-08T19:40:26.434Z,0
2018-01-08T19:41:48.384Z,0
2018-01-08T19:43:10.674Z,0
2018-01-08T19:44:32.856Z,0
2018-01-08T19:45:55.053Z,0
2018-01-08T19:47:17.004Z,0
2018-01-08T19:48:38.939Z,0